createdAt,value
2019-05-09T00:02:47.971Z,98466.77
2019-05-09T00:05:34.156Z,98474.98
2019-05-09T00:08:20.276Z,98475.48
2019-05-09T00:11:06.982Z,98478.65
2019-05-09T00:13:53.844Z,98470.77
2019-05-09T00:16:44.079Z,98477.30
2019-05-09T00:19:33.393Z,98476.64
2019-05-09T00:22:20.209Z,98474.55
2019-05-09T00:25:09.107Z,98487.00
2019-05-09T00:27:57.127Z,98489.83
2019-05-09T00:31:05.182Z,98480.32
2019-05-09T00:33:57.078Z,98489.36
2019-05-09T00:36:45.266Z,98491.33
2019-05-09T00:39:36.160Z,98490.52
2019-05-09T00:42:24.036Z,98494.30
2019-05-09T00:45:33.431Z,98497.94
2019-05-09T00:48:25.201Z,98497.75
2019-05-09T00:51:14.189Z,98497.13
2019-05-09T00:54:04.165Z,98495.97
2019-05-09T00:56:53.789Z,98501.07
2019-05-09T00:59:44.530Z,98491.41
2019-05-09T01:02:35.489Z,98493.03
2019-05-09T01:05:24.416Z,98499.09
2019-05-09T01:08:11.026Z,98493.69
2019-05-09T01:11:11.042Z,98493.69
2019-05-09T01:13:46.367Z,98497.48
2019-05-09T01:16:34.067Z,98493.03
2019-05-09T01:19:23.327Z,98496.48
2019-05-09T01:22:10.599Z,98494.53
2019-05-09T01:24:57.375Z,98495.31
2019-05-09T01:27:45.265Z,98492.37
2019-05-09T01:30:35.137Z,98489.44
2019-05-09T01:33:39.736Z,98495.34
2019-05-09T01:36:45.742Z,98490.09
2019-05-09T01:39:33.673Z,98488.59
2019-05-09T01:42:20.392Z,98490.88
2019-05-09T01:45:06.831Z,98491.22
2019-05-09T01:47:53.816Z,98498.95
2019-05-09T01:50:40.067Z,98492.53
2019-05-09T01:53:30.735Z,98499.30
2019-05-09T01:56:16.831Z,98495.01
2019-05-09T01:59:03.157Z,98496.32
2019-05-09T02:01:49.547Z,98502.92
2019-05-09T02:04:35.851Z,98499.30
2019-05-09T02:07:23.749Z,98496.51
2019-05-09T02:10:10.397Z,98491.44
2019-05-09T02:12:56.633Z,98488.00
2019-05-09T02:16:08.455Z,98489.16
2019-05-09T02:19:01.061Z,98500.98
2019-05-09T02:21:47.230Z,98490.16
2019-05-09T02:24:33.809Z,98484.90
2019-05-09T02:27:20.236Z,98486.06
2019-05-09T02:30:07.402Z,98487.21
2019-05-09T02:32:54.708Z,98479.98
2019-05-09T02:35:51.682Z,98483.95
2019-05-09T02:38:29.007Z,98487.55
2019-05-09T02:41:15.168Z,98483.48
2019-05-09T02:44:01.103Z,98488.23
2019-05-09T02:46:58.932Z,98492.02
2019-05-09T02:49:44.856Z,98494.80
2019-05-09T02:52:30.866Z,98498.42
2019-05-09T02:55:18.509Z,98494.66
2019-05-09T02:58:08.243Z,98496.45
2019-05-09T03:01:14.138Z,98505.32
2019-05-09T03:04:00.279Z,98501.25
2019-05-09T03:06:49.224Z,98504.34
2019-05-09T03:09:34.794Z,98502.05
2019-05-09T03:12:30.565Z,98502.38
2019-05-09T03:15:09.438Z,98508.76
2019-05-09T03:17:55.700Z,98509.28
2019-05-09T03:21:19.172Z,98513.06
2019-05-09T03:24:04.274Z,98508.61
2019-05-09T03:26:55.837Z,98510.27
2019-05-09T03:29:49.226Z,98517.48
2019-05-09T03:32:38.563Z,98522.90
2019-05-09T03:35:23.086Z,98515.52
2019-05-09T03:38:09.108Z,98527.83
2019-05-09T03:40:55.407Z,98527.00
2019-05-09T03:43:41.621Z,98526.37
2019-05-09T03:46:42.267Z,98529.95
2019-05-09T03:49:28.688Z,98527.83
2019-05-09T03:52:14.807Z,98528.66
2019-05-09T03:55:00.882Z,98529.98
2019-05-09T03:57:53.967Z,98532.60
2019-05-09T04:00:40.207Z,98531.77
2019-05-09T04:03:27.698Z,98543.43
2019-05-09T04:06:14.298Z,98545.37
2019-05-09T04:09:00.467Z,98542.59
2019-05-09T04:11:48.544Z,98543.27
2019-05-09T04:14:37.545Z,98544.41
2019-05-09T04:17:41.688Z,98544.41
2019-05-09T04:20:27.836Z,98552.44
2019-05-09T04:23:13.912Z,98552.61
2019-05-09T04:26:07.565Z,98550.97
2019-05-09T04:28:53.747Z,98546.38
2019-05-09T04:31:40.008Z,98544.87
2019-05-09T04:34:27.520Z,98554.89
2019-05-09T04:37:14.128Z,98547.35
2019-05-09T04:40:03.327Z,98557.52
2019-05-09T04:42:48.532Z,98550.79
2019-05-09T04:45:41.901Z,98547.67
2019-05-09T04:48:32.088Z,98548.83
2019-05-09T04:51:18.146Z,98550.63
2019-05-09T04:54:04.103Z,98551.28
2019-05-09T04:56:53.678Z,98556.53
2019-05-09T04:59:38.302Z,98559.64
2019-05-09T05:02:48.456Z,98560.30
2019-05-09T05:05:34.842Z,98557.67
2019-05-09T05:08:21.123Z,98557.84
2019-05-09T05:11:07.546Z,98562.39
2019-05-09T05:13:53.826Z,98557.43
2019-05-09T05:16:40.099Z,98562.64
2019-05-09T05:19:28.550Z,98564.61
2019-05-09T05:22:28.402Z,98566.23
2019-05-09T05:25:15.062Z,98566.56
2019-05-09T05:28:01.096Z,98565.17
2019-05-09T05:30:48.253Z,98565.50
2019-05-09T05:33:43.854Z,98566.46
2019-05-09T05:36:29.715Z,98573.14
2019-05-09T05:39:17.858Z,98575.11
2019-05-09T05:42:24.828Z,98570.69
2019-05-09T05:45:11.063Z,98573.75
2019-05-09T05:48:27.888Z,98578.28
2019-05-09T05:52:08.088Z,98573.96
2019-05-09T05:54:54.657Z,98576.73
2019-05-09T05:58:28.623Z,98575.02
2019-05-09T06:01:27.668Z,98576.63
2019-05-09T06:04:13.363Z,98575.80
2019-05-09T06:06:59.258Z,98579.80
2019-05-09T06:09:45.598Z,98576.06
2019-05-09T06:12:31.718Z,98578.31
2019-05-09T06:15:18.506Z,98576.05
2019-05-09T06:18:04.855Z,98582.94
2019-05-09T06:20:50.963Z,98566.14
2019-05-09T06:23:37.470Z,98569.01
2019-05-09T06:26:23.868Z,98572.03
2019-05-09T06:29:10.104Z,98573.94
2019-05-09T06:31:58.286Z,98578.54
2019-05-09T06:34:44.481Z,98588.26
2019-05-09T06:37:30.604Z,98580.88
2019-05-09T06:40:21.473Z,98592.77
2019-05-09T06:43:18.391Z,98590.78
2019-05-09T06:46:21.601Z,98587.55
2019-05-09T06:49:24.213Z,98588.88
2019-05-09T06:51:59.818Z,98581.73
2019-05-09T06:54:45.873Z,98583.97
2019-05-09T06:57:32.063Z,98575.45
2019-05-09T07:00:37.847Z,98553.73
2019-05-09T07:03:24.988Z,98546.33
2019-05-09T07:06:29.178Z,98548.42
2019-05-09T07:09:19.827Z,98550.86
2019-05-09T07:12:07.900Z,98548.28
2019-05-09T07:14:53.985Z,98546.75
2019-05-09T07:17:39.894Z,98547.78
2019-05-09T07:20:28.469Z,98554.19
2019-05-09T07:23:14.846Z,98564.00
2019-05-09T07:26:29.705Z,98555.97
2019-05-09T07:29:17.847Z,98557.59
2019-05-09T07:32:10.193Z,98568.05
2019-05-09T07:34:59.965Z,98542.82
2019-05-09T07:37:48.791Z,98543.13
2019-05-09T07:40:34.686Z,98550.35
2019-05-09T07:43:20.896Z,98555.02
2019-05-09T07:46:13.285Z,98563.33
2019-05-09T07:49:01.806Z,98564.21
2019-05-09T07:51:48.025Z,98571.57
2019-05-09T07:54:34.505Z,98563.53
2019-05-09T07:57:20.848Z,98560.22
2019-05-09T08:00:07.856Z,98550.98
2019-05-09T08:02:54.448Z,98554.08
2019-05-09T08:05:40.726Z,98558.66
2019-05-09T08:08:27.818Z,98566.38
2019-05-09T08:11:14.585Z,98554.83
2019-05-09T08:14:00.707Z,98543.55
2019-05-09T08:16:47.655Z,98562.95
2019-05-09T08:19:33.988Z,98547.38
2019-05-09T08:22:25.696Z,98557.25
2019-05-09T08:25:08.696Z,98548.77
2019-05-09T08:27:55.145Z,98533.01
2019-05-09T08:30:41.414Z,98548.58
2019-05-09T08:33:28.787Z,98559.27
2019-05-09T08:36:15.029Z,98554.03
2019-05-09T08:39:01.246Z,98572.80
2019-05-09T08:41:48.528Z,98554.39
2019-05-09T08:44:35.045Z,98536.59
2019-05-09T08:47:21.330Z,98533.69
2019-05-09T08:50:19.467Z,98537.13
2019-05-09T08:53:08.003Z,98522.00
2019-05-09T08:55:54.088Z,98523.52
2019-05-09T08:58:40.308Z,98524.50
2019-05-09T09:01:35.154Z,98528.92
2019-05-09T09:04:14.768Z,98535.96
2019-05-09T09:07:00.870Z,98540.17
2019-05-09T09:09:48.216Z,98535.75
2019-05-09T09:12:34.809Z,98532.11
2019-05-09T09:15:20.862Z,98522.81
2019-05-09T09:18:08.597Z,98531.22
2019-05-09T09:20:55.332Z,98510.98
2019-05-09T09:23:46.785Z,98538.71
2019-05-09T09:26:29.668Z,98507.31
2019-05-09T09:29:17.832Z,98524.33
2019-05-09T09:32:04.275Z,98538.41
2019-05-09T09:34:50.527Z,98521.30
2019-05-09T09:37:47.644Z,98517.91
2019-05-09T09:40:24.887Z,98517.41
2019-05-09T09:43:11.070Z,98507.84
2019-05-09T09:46:09.991Z,98522.92
2019-05-09T09:48:47.824Z,98540.85
2019-05-09T09:51:33.848Z,98508.63
2019-05-09T09:54:19.968Z,98529.03
2019-05-09T09:57:09.176Z,98525.94
2019-05-09T10:00:00.347Z,98524.64
2019-05-09T10:02:48.227Z,98522.23
2019-05-09T10:05:34.330Z,98523.43
2019-05-09T10:08:20.568Z,98534.15
2019-05-09T10:11:08.120Z,98525.51
2019-05-09T10:13:54.627Z,98543.02
2019-05-09T10:16:54.867Z,98527.27
2019-05-09T10:19:48.143Z,98524.51
2019-05-09T10:22:35.106Z,98533.88
2019-05-09T10:25:21.529Z,98507.79
2019-05-09T10:28:08.747Z,98532.91
2019-05-09T10:30:57.703Z,98495.02
2019-05-09T10:33:44.448Z,98500.69
2019-05-09T10:36:30.673Z,98504.53
2019-05-09T10:39:18.693Z,98522.05
2019-05-09T10:42:14.537Z,98502.75
2019-05-09T10:45:40.719Z,98515.48
2019-05-09T10:48:28.268Z,98518.80
2019-05-09T10:51:14.830Z,98499.81
2019-05-09T10:54:01.055Z,98492.11
2019-05-09T10:56:48.729Z,98492.65
2019-05-09T10:59:37.549Z,98472.16
2019-05-09T11:02:23.467Z,98500.90
2019-05-09T11:05:09.408Z,98505.06
2019-05-09T11:07:55.728Z,98507.91
2019-05-09T11:10:41.768Z,98502.23
2019-05-09T11:13:28.762Z,98482.70
2019-05-09T11:16:18.339Z,98485.05
2019-05-09T11:19:04.688Z,98466.69
2019-05-09T11:21:51.028Z,98476.86
2019-05-09T11:24:45.859Z,98485.84
2019-05-09T11:27:29.061Z,98494.69
2019-05-09T11:30:14.488Z,98517.02
2019-05-09T11:33:00.527Z,98527.87
2019-05-09T11:35:47.954Z,98525.92
2019-05-09T11:38:42.603Z,98519.02
2019-05-09T11:41:23.569Z,98526.78
2019-05-09T11:44:09.734Z,98536.38
2019-05-09T11:46:58.089Z,98557.69
2019-05-09T11:49:43.787Z,98555.98
2019-05-09T11:52:29.948Z,98541.09
2019-05-09T11:55:29.809Z,98553.33
2019-05-09T11:58:04.785Z,98539.83
2019-05-09T12:00:51.447Z,98523.33
2019-05-09T12:03:38.840Z,98540.23
2019-05-09T12:06:25.256Z,98535.39
2019-05-09T12:09:14.590Z,98533.81
2019-05-09T12:12:00.381Z,98533.02
2019-05-09T12:14:48.380Z,98543.55
2019-05-09T12:17:49.752Z,98553.80
2019-05-09T12:20:22.749Z,98548.02
2019-05-09T12:23:09.495Z,98568.15
2019-05-09T12:25:58.066Z,98569.63
2019-05-09T12:28:44.121Z,98568.64
2019-05-09T12:31:30.707Z,98569.06
2019-05-09T12:34:19.385Z,98573.64
2019-05-09T12:37:09.487Z,98561.17
2019-05-09T12:39:55.407Z,98557.69
2019-05-09T12:42:41.607Z,98558.89
2019-05-09T12:45:28.070Z,98570.19
2019-05-09T12:48:15.821Z,98546.75
2019-05-09T12:51:02.827Z,98550.34
2019-05-09T12:53:48.921Z,98566.23
2019-05-09T12:56:35.488Z,98573.69
2019-05-09T12:59:21.930Z,98548.66
2019-05-09T13:02:08.367Z,98550.47
2019-05-09T13:04:54.707Z,98543.99
2019-05-09T13:07:42.485Z,98545.68
2019-05-09T13:10:28.687Z,98548.66
2019-05-09T13:13:15.037Z,98551.05
2019-05-09T13:16:17.849Z,98545.94
2019-05-09T13:19:08.207Z,98543.17
2019-05-09T13:21:54.146Z,98536.73
2019-05-09T13:24:40.287Z,98532.02
2019-05-09T13:27:28.461Z,98530.11
2019-05-09T13:30:15.617Z,98536.09
2019-05-09T13:33:05.380Z,98542.41
2019-05-09T13:35:51.548Z,98557.73
2019-05-09T13:38:39.131Z,98560.14
2019-05-09T13:41:25.848Z,98559.52
2019-05-09T13:44:13.886Z,98555.50
2019-05-09T13:47:02.559Z,98560.27
2019-05-09T13:49:49.052Z,98564.00
2019-05-09T13:52:38.070Z,98538.95
2019-05-09T13:55:24.827Z,98532.94
2019-05-09T13:58:19.521Z,98541.97
2019-05-09T14:01:07.654Z,98529.35
2019-05-09T14:03:53.567Z,98542.03
2019-05-09T14:06:40.227Z,98558.53
2019-05-09T14:09:29.247Z,98559.69
2019-05-09T14:12:17.594Z,98569.09
2019-05-09T14:15:04.087Z,98577.14
2019-05-09T14:17:53.647Z,98577.83
2019-05-09T14:20:38.329Z,98578.20
2019-05-09T14:23:24.519Z,98579.65
2019-05-09T14:26:12.328Z,98569.69
2019-05-09T14:28:58.452Z,98587.51
2019-05-09T14:31:46.048Z,98601.52
2019-05-09T14:34:33.487Z,98603.61
2019-05-09T14:37:19.730Z,98604.71
2019-05-09T14:40:10.133Z,98606.14
2019-05-09T14:42:54.328Z,98615.05
2019-05-09T14:45:40.667Z,98617.73
2019-05-09T14:48:28.707Z,98607.08
2019-05-09T14:51:15.190Z,98616.70
2019-05-09T14:54:01.333Z,98605.98
2019-05-09T14:56:48.563Z,98601.16
2019-05-09T14:59:35.327Z,98605.98
2019-05-09T15:02:21.912Z,98605.72
2019-05-09T15:05:09.460Z,98611.78
2019-05-09T15:07:58.998Z,98613.02
2019-05-09T15:10:45.452Z,98615.96
2019-05-09T15:13:31.707Z,98624.83
2019-05-09T15:16:18.592Z,98629.45
2019-05-09T15:19:04.668Z,98632.55
2019-05-09T15:21:50.807Z,98637.45
2019-05-09T15:24:38.804Z,98636.52
2019-05-09T15:27:25.108Z,98642.95
2019-05-09T15:30:12.107Z,98643.39
2019-05-09T15:32:58.642Z,98653.19
2019-05-09T15:35:45.179Z,98644.84
2019-05-09T15:38:31.448Z,98652.98
2019-05-09T15:41:18.493Z,98653.17
2019-05-09T15:44:04.747Z,98658.31
2019-05-09T15:46:55.290Z,98652.05
2019-05-09T15:49:41.567Z,98652.98
2019-05-09T15:52:28.568Z,98651.52
2019-05-09T15:55:14.768Z,98647.53
2019-05-09T15:58:00.968Z,98648.49
2019-05-09T16:00:47.913Z,98656.62
2019-05-09T16:03:34.270Z,98665.09
2019-05-09T16:06:20.853Z,98654.35
2019-05-09T16:09:11.307Z,98660.70
2019-05-09T16:11:55.268Z,98657.76
2019-05-09T16:14:41.589Z,98658.07
2019-05-09T16:17:28.502Z,98672.39
2019-05-09T16:20:17.917Z,98674.61
2019-05-09T16:23:03.469Z,98674.94
2019-05-09T16:25:49.867Z,98676.84
2019-05-09T16:28:37.905Z,98677.80
2019-05-09T16:31:24.162Z,98684.31
2019-05-09T16:34:10.548Z,98681.33
2019-05-09T16:36:58.358Z,98680.22
2019-05-09T16:39:44.712Z,98690.78
2019-05-09T16:42:31.012Z,98687.55
2019-05-09T16:45:18.267Z,98684.09
2019-05-09T16:48:04.768Z,98691.05
2019-05-09T16:51:00.668Z,98683.72
2019-05-09T16:53:39.062Z,98699.47
2019-05-09T16:56:25.244Z,98700.23
2019-05-09T16:59:11.587Z,98692.50
2019-05-09T17:01:57.927Z,98701.48
2019-05-09T17:04:44.346Z,98699.34
2019-05-09T17:07:30.552Z,98697.12
2019-05-09T17:10:17.738Z,98693.36
2019-05-09T17:13:03.853Z,98694.98
2019-05-09T17:15:50.045Z,98701.02
2019-05-09T17:18:38.136Z,98707.07
2019-05-09T17:21:49.824Z,98706.22
2019-05-09T17:24:37.382Z,98706.52
2019-05-09T17:27:23.446Z,98716.81
2019-05-09T17:30:09.883Z,98713.30
2019-05-09T17:32:58.228Z,98717.77
2019-05-09T17:35:44.394Z,98719.56
2019-05-09T17:38:30.702Z,98718.73
2019-05-09T17:41:17.711Z,98728.87
2019-05-09T17:44:04.067Z,98727.95
2019-05-09T17:46:50.232Z,98726.92
2019-05-09T17:49:37.489Z,98732.43
2019-05-09T17:52:23.906Z,98732.45
2019-05-09T17:55:11.502Z,98734.64
2019-05-09T17:57:58.670Z,98739.34
2019-05-09T18:00:44.879Z,98739.06
2019-05-09T18:03:31.192Z,98738.19
2019-05-09T18:06:19.179Z,98739.39
2019-05-09T18:09:08.467Z,98744.41
2019-05-09T18:11:54.182Z,98750.73
2019-05-09T18:14:40.562Z,98740.66
2019-05-09T18:17:27.611Z,98749.28
2019-05-09T18:20:14.153Z,98755.27
2019-05-09T18:23:03.246Z,98758.41
2019-05-09T18:25:49.558Z,98751.05
2019-05-09T18:28:35.632Z,98762.20
2019-05-09T18:31:23.892Z,98768.73
2019-05-09T18:34:10.183Z,98774.83
2019-05-09T18:36:58.613Z,98773.02
2019-05-09T18:39:44.533Z,98780.01
2019-05-09T18:42:30.573Z,98778.42
2019-05-09T18:45:17.600Z,98774.50
2019-05-09T18:48:03.796Z,98789.41
2019-05-09T18:50:50.074Z,98787.02
2019-05-09T18:53:36.117Z,98793.48
2019-05-09T18:56:22.732Z,98796.61
2019-05-09T18:59:08.941Z,98800.30
2019-05-09T19:01:54.943Z,98803.01
2019-05-09T19:04:41.309Z,98802.73
2019-05-09T19:07:27.436Z,98807.16
2019-05-09T19:10:15.290Z,98809.80
2019-05-09T19:13:01.762Z,98805.57
2019-05-09T19:16:16.331Z,98813.55
2019-05-09T19:19:24.702Z,98815.71
2019-05-09T19:22:21.927Z,98813.66
2019-05-09T19:24:59.232Z,98827.90
2019-05-09T19:27:45.197Z,98833.17
2019-05-09T19:30:31.607Z,98833.62
2019-05-09T19:33:17.766Z,98830.81
2019-05-09T19:36:03.987Z,98835.14
2019-05-09T19:38:50.033Z,98839.41
2019-05-09T19:41:36.441Z,98837.14
2019-05-09T19:44:22.738Z,98841.32
2019-05-09T19:47:08.884Z,98842.28
2019-05-09T19:49:55.063Z,98845.93
2019-05-09T19:52:41.281Z,98852.91
2019-05-09T19:55:27.637Z,98849.81
2019-05-09T19:58:13.752Z,98852.95
2019-05-09T20:00:59.987Z,98860.58
2019-05-09T20:03:46.312Z,98866.88
2019-05-09T20:06:32.300Z,98865.09
2019-05-09T20:09:24.707Z,98867.08
2019-05-09T20:12:36.373Z,98870.22
2019-05-09T20:15:23.127Z,98877.88
2019-05-09T20:18:09.533Z,98880.52
2019-05-09T20:20:55.603Z,98885.49
2019-05-09T20:23:41.790Z,98880.84
2019-05-09T20:26:28.051Z,98893.56
2019-05-09T20:29:14.172Z,98888.60
2019-05-09T20:32:00.373Z,98894.87
2019-05-09T20:34:46.703Z,98897.72
2019-05-09T20:37:32.852Z,98901.56
2019-05-09T20:40:19.057Z,98902.98
2019-05-09T20:43:05.742Z,98912.72
2019-05-09T20:45:51.852Z,98911.56
2019-05-09T20:48:38.087Z,98914.44
2019-05-09T20:51:24.128Z,98906.92
2019-05-09T20:54:20.462Z,98906.41
2019-05-09T20:56:58.498Z,98908.23
2019-05-09T20:59:44.749Z,98912.06
2019-05-09T21:02:30.961Z,98911.25
2019-05-09T21:05:17.123Z,98915.52
2019-05-09T21:08:03.278Z,98917.00
2019-05-09T21:10:49.363Z,98919.81
2019-05-09T21:13:47.956Z,98919.00
2019-05-09T21:16:23.885Z,98919.31
2019-05-09T21:19:10.032Z,98920.75
2019-05-09T21:21:56.235Z,98923.08
2019-05-09T21:24:42.363Z,98929.51
2019-05-09T21:27:28.612Z,98933.23
2019-05-09T21:30:14.786Z,98940.02
2019-05-09T21:33:00.583Z,98938.35
2019-05-09T21:35:46.797Z,98938.78
2019-05-09T21:38:33.058Z,98945.88
2019-05-09T21:41:19.053Z,98949.98
2019-05-09T21:44:06.077Z,98954.91
2019-05-09T21:46:52.502Z,98949.44
2019-05-09T21:49:38.624Z,98954.72
2019-05-09T21:52:24.800Z,98954.56
2019-05-09T21:55:11.033Z,98969.06
2019-05-09T21:57:57.194Z,98972.55
2019-05-09T22:00:45.980Z,98977.31
2019-05-09T22:03:32.387Z,98969.06
2019-05-09T22:06:18.503Z,98975.81
2019-05-09T22:09:08.179Z,98975.62
2019-05-09T22:11:54.598Z,98980.89
2019-05-09T22:14:40.820Z,98990.13
2019-05-09T22:17:37.819Z,98978.91
2019-05-09T22:20:24.063Z,98990.62
2019-05-09T22:23:10.005Z,98985.69
2019-05-09T22:25:56.188Z,98985.19
2019-05-09T22:28:42.227Z,98996.59
2019-05-09T22:31:28.304Z,98995.27
2019-05-09T22:34:14.414Z,98999.92
2019-05-09T22:37:00.547Z,99005.53
2019-05-09T22:39:46.797Z,99006.88
2019-05-09T22:42:32.923Z,99012.31
2019-05-09T22:45:19.035Z,99020.56
2019-05-09T22:48:05.252Z,99023.40
2019-05-09T22:50:51.362Z,99026.35
2019-05-09T22:53:37.713Z,99030.00
2019-05-09T22:56:23.957Z,99029.34
2019-05-09T22:59:10.108Z,99036.73
2019-05-09T23:01:56.383Z,99039.20
2019-05-09T23:04:42.332Z,99038.58
2019-05-09T23:07:28.539Z,99035.92
2019-05-09T23:10:14.857Z,99041.85
2019-05-09T23:13:00.629Z,99048.27
2019-05-09T23:15:46.783Z,99046.65
2019-05-09T23:18:32.992Z,99053.39
2019-05-09T23:21:19.117Z,99061.94
2019-05-09T23:24:09.962Z,99056.02
2019-05-09T23:26:56.012Z,99061.92
2019-05-09T23:29:42.043Z,99064.88
2019-05-09T23:32:32.573Z,99073.61
2019-05-09T23:35:18.900Z,99071.80
2019-05-09T23:38:05.239Z,99072.11
2019-05-09T23:40:51.520Z,99071.10
2019-05-09T23:43:37.577Z,99072.76
2019-05-09T23:46:23.810Z,99071.61
2019-05-09T23:49:10.030Z,99079.68
2019-05-09T23:51:56.223Z,99084.09
2019-05-09T23:55:00.384Z,99075.88
2019-05-09T23:58:04.734Z,99078.17
